• Join FlightAware (Why Join?)
  • Login
  • US Flag GB Flag 
14:30 EDT


 

Airport Tracker/Info


-or-


 

Live Flight TrackerFlight Track Log ✈ SWA2975 ✈ 07-Jul-2013 ✈ KSLC - KMDW

Flight Track Log - Related Links

Times and Time Zones

All times are in EDT time to prevent confusion due to time zone crossing. See the SWA2975 flight status page for this flight to view local times or setup timezone preferences in your user account.

Time Position Orientation Groundspeed Altitude Reporting Facility
EDT Latitude Longitude Course Direction KTS MPH feet Rate Location/Type
18:38 40.8060 -111.9790 33° Northeast  Level FlightAware
18:39 40.8070 -111.9790 360° North 22 25 1,680 Level FlightAware
18:40 40.8070 -111.9780 90° East 25 29 2,700 Level FlightAware
18:40 40.8070 -111.9740 90° East 25 29 3,180 Level FlightAware
18:40 40.8050 -111.9770 229° Southwest 42 48 4,380 Level FlightAware
18:41 40.8010 -111.9760 169° South 42 48 5,460 Level FlightAware
18:41 40.7660 -111.9730 176° South 178 205 5,300 5,520 Climbing FlightAware
18:42 40.7450 -111.9950 218° Southwest 230 265 5,900 1,560 Climbing FlightAware
18:42 40.7480 -112.0390 275° West 261 300 6,900 2,280 Climbing FlightAware
18:43 40.7610 -112.0740 296° West 287 330 7,900 2,580 Climbing FlightAware
18:43 40.7690 -112.0840 317° Northwest 290 334 8,300 3,000 Climbing FlightAware
18:43 40.7860 -112.0960 332° Northwest 294 338 9,000 3,000 Climbing FlightAware
18:44 40.8190 -112.0850 14° North 290 334 10,300 2,820 Climbing FlightAware
18:44 40.8360 -112.0620 46° Northeast 291 335 11,100 1,740 Climbing FlightAware
18:45 40.8750 -111.9560 64° Northeast 324 373 13,200 2,280 Climbing FlightAware
18:46 40.8680 -111.8400 95° East 329 379 15,800 2,820 Climbing FlightAware
18:47 40.8430 -111.7540 111° Southeast 342 394 17,400 2,220 Climbing FlightAware
18:47 40.8130 -111.6790 118° Southeast 349 402 19,000 2,400 Climbing FlightAware
18:48 40.7890 -111.6090 114° Southeast 357 411 20,500 1,980 Climbing FlightAware
18:49 40.7820 -111.5150 96° East 377 434 21,600 1,320 Climbing FlightAware
18:49 40.7930 -111.4260 81° East 400 460 22,300 840 Climbing FlightAware
18:50 40.8100 -111.3290 77° East 432 497 22,700 1,080 Climbing FlightAware
18:51 40.8300 -111.2190 76° East 442 509 23,800 780 Climbing FlightAware
18:51 40.8450 -111.1370 76° East 442 509 23,800  Level FlightAware
18:52 40.8640 -111.0340 76° East 442 509 23,800  Level FlightAware
18:53 40.8800 -110.9540 75° East 442 509 23,800  Level FlightAware
18:53 40.9000 -110.8440 76° East 442 509 23,800 3,600 Level FlightAware
18:54 40.8420 -110.7030 118° Southeast 469 540 28,100 3,540 Climbing FlightAware
18:55 40.8210 -110.5460 100° East 474 545 28,800 420 Climbing FlightAware
18:55 40.8100 -110.4590 99° East 474 545 28,800  Level FlightAware
18:56 40.7940 -110.3430 100° East 474 545 28,800  Level FlightAware
18:57 40.7830 -110.2580 100° East 474 545 28,800 4,080 Level FlightAware
18:57 40.8380 -110.1210 62° Northeast 481 554 32,500 4,260 Climbing FlightAware
18:58 40.8490 -109.9880 84° East 482 555 33,400 1,200 Climbing FlightAware
18:59 40.8620 -109.8700 82° East 483 556 34,200 1,140 Climbing FlightAware
18:59 40.8820 -109.7700 75° East 481 554 34,900 600 Climbing FlightAware
19:00 40.9040 -109.6560 76° East 482 555 35,000 60 Climbing FlightAware
19:01 40.9280 -109.5300 76° East 484 557 35,000  Level FlightAware
19:01 40.9500 -109.4130 76° East 487 560 35,000 60 Level FlightAware
19:02 40.9730 -109.2860 76° East 498 573 35,100 420 Climbing FlightAware
19:03 40.9940 -109.1740 76° East 500 575 35,600 600 Climbing FlightAware
19:03 41.0190 -109.0370 76° East 507 583 36,000 600 Climbing FlightAware
19:04 41.0360 -108.9470 76° East 508 585 36,400 720 Climbing FlightAware
19:05 41.0620 -108.8040 76° East 499 574 37,000 420 Climbing FlightAware
19:05 41.0810 -108.6960 77° East 495 570 37,000  Level FlightAware
19:06 41.1050 -108.5630 76° East 492 566 37,000  Level FlightAware
19:07 41.1280 -108.4380 76° East 489 563 37,000  Level FlightAware
19:07 41.1480 -108.3240 77° East 485 558 37,000  Level FlightAware
19:08 41.1700 -108.2000 77° East 483 556 37,000  Level FlightAware
19:09 41.1900 -108.0840 77° East 484 557 37,000  Level FlightAware
19:09 41.2070 -107.9850 77° East 486 559 37,000  Level FlightAware
19:10 41.2300 -107.8520 77° East 489 563 37,000  Level FlightAware
19:11 41.2490 -107.7440 77° East 489 563 37,000  Level FlightAware
19:12 41.2770 -107.5810 77° East 494 568 37,000  Level FlightAware
19:12 41.2970 -107.4600 78° East 493 567 37,000  Level FlightAware
19:13 41.3180 -107.3380 77° East 495 570 37,000  Level FlightAware
19:14 41.3400 -107.2050 78° East 497 572 37,000  Level FlightAware
19:14 41.3570 -107.0810 80° East 498 573 37,000  Level FlightAware
19:15 41.3640 -106.9690 85° East 499 574 37,000  Level FlightAware
19:16 41.3720 -106.8410 85° East 501 577 37,000  Level FlightAware
19:16 41.3800 -106.7140 85° East 504 580 37,000  Level FlightAware
19:17 41.3870 -106.5950 85° East 500 575 37,000  Level FlightAware
19:18 41.3950 -106.4680 85° East 503 579 37,000  Level FlightAware
19:18 41.4010 -106.3630 86° East 503 579 37,000  Level FlightAware
19:19 41.4090 -106.2260 86° East 503 579 37,000  Level FlightAware
19:20 41.4160 -106.0970 86° East 502 578 37,000  Level FlightAware
19:21 41.4360 -105.9700 78° East 506 582 37,000  Level FlightAware
19:21 41.4670 -105.8500 71° East 504 580 37,000  Level FlightAware
19:22 41.4940 -105.7160 75° East 504 580 37,000  Level FlightAware
19:23 41.5150 -105.6080 75° East 503 579 37,000  Level FlightAware
19:23 41.5360 -105.4910 76° East 502 578 37,000  Level FlightAware
19:24 41.5570 -105.3790 76° East 501 577 37,000  Level FlightAware
19:25 41.5840 -105.2410 75° East 495 570 37,000  Level FlightAware
19:25 41.6010 -105.1500 76° East 493 567 37,000  Level FlightAware
19:26 41.6270 -105.0190 75° East 491 565 37,000  Level FlightAware
19:27 41.6530 -104.8810 76° East 496 571 37,000  Level FlightAware
19:27 41.6770 -104.7640 75° East 497 572 37,000  Level FlightAware
19:28 41.7030 -104.6330 75° East 497 572 37,000  Level FlightAware
19:29 41.7260 -104.5150 75° East 499 574 37,000  Level FlightAware
19:29 41.7540 -104.3830 74° East 500 575 37,000  Level FlightAware
19:30 41.7750 -104.2800 75° East 504 580 37,000  Level FlightAware
19:31 41.7980 -104.1670 75° East 505 581 37,000  Level FlightAware
19:31 41.8260 -104.0340 74° East 507 583 37,000  Level FlightAware
19:32 41.8490 -103.9240 74° East 510 587 37,000  Level FlightAware
19:33 41.8760 -103.7980 74° East 510 587 37,000  Level FlightAware
19:33 41.9020 -103.6770 74° East 511 588 37,000  Level FlightAware
19:34 41.9250 -103.5730 73° East 513 590 37,000  Level FlightAware
19:35 41.9580 -103.4140 74° East 513 590 37,000  Level FlightAware
19:35 41.9830 -103.2870 75° East 514 592 37,000  Level FlightAware
19:36 42.0030 -103.1600 78° East 510 587 37,000  Level FlightAware
19:37 41.9980 -103.0500 93° East 505 581 37,000  Level FlightAware
19:37 41.9880 -102.9140 96° East 504 580 37,000  Level FlightAware
19:38 41.9810 -102.8100 95° East 504 580 37,000  Level FlightAware
19:39 41.9750 -102.7120 95° East 504 580 37,000  Level FlightAware
19:39 41.9690 -102.6170 95° East 504 580 37,000  Level FlightAware
19:40 41.9600 -102.4890 95° East 504 580 37,000  Level FlightAware
19:41 41.9540 -102.3910 95° East 504 580 37,000  Level FlightAware
19:42 41.9460 -102.2630 95° East 504 580 37,000  Level FlightAware
19:42 41.8780 -102.0340 112° Southeast 503 579 37,000  Level FlightAware
19:43 41.8560 -101.9210 105° East 502 578 37,000  Level FlightAware
19:44 41.8340 -101.8030 104° East 502 578 37,000  Level FlightAware
19:44 41.8170 -101.7100 104° East 502 578 37,000  Level FlightAware
19:45 41.7900 -101.5610 104° East 502 578 37,000  Level FlightAware
19:46 41.7720 -101.4660 104° East 502 578 37,000  Level FlightAware
19:47 41.7490 -101.3430 104° East 502 578 37,000  Level FlightAware
19:47 41.7320 -101.2530 104° East 502 578 37,000  Level FlightAware
19:48 41.5670 -101.0340 135° Southeast 485 558 37,000  Level FlightAware
19:49 41.5450 -100.9470 109° East 485 558 37,000  Level FlightAware
19:50 41.5160 -100.8360 109° East 485 558 37,000  Level FlightAware
19:50 41.4940 -100.7490 109° East 485 558 37,000  Level FlightAware
19:51 41.4640 -100.6340 109° East 485 558 37,000  Level FlightAware
19:52 41.4340 -100.5180 109° East 485 558 37,000  Level FlightAware
19:53 41.4110 -100.4290 109° East 485 558 37,000  Level FlightAware
19:53 41.3880 -100.3380 109° East 485 558 37,000  Level FlightAware
19:54 41.3590 -100.2250 109° East 485 558 37,000  Level FlightAware
19:55 41.3360 -100.1390 110° East 485 558 37,000  Level FlightAware
19:55 41.3130 -100.0500 109° East 485 558 37,000  Level FlightAware
19:56 41.2900 -99.9610 109° East 485 558 37,000  Level FlightAware
19:57 41.2610 -99.8460 109° East 485 558 37,000  Level FlightAware
19:57 41.2380 -99.7590 109° East 485 558 37,000  Level FlightAware
20:01 41.5370 -98.6960 69° East 491 565 37,000  Level FlightAware
20:02 41.5370 -98.5800 90° East 491 565 37,000  Level FlightAware
20:03 41.5360 -98.4430 91° East 490 564 37,000  Level FlightAware
20:03 41.5360 -98.3130 90° East 489 563 37,000  Level FlightAware
20:04 41.5350 -98.1920 91° East 489 563 37,000  Level FlightAware
20:05 41.5340 -98.0470 90° East 490 564 37,000  Level FlightAware
20:05 41.5330 -97.9450 91° East 491 565 37,000  Level FlightAware
20:06 41.5320 -97.8300 91° East 491 565 37,000  Level FlightAware
20:07 41.5310 -97.6820 90° East 491 565 37,000  Level FlightAware
20:07 41.5300 -97.5860 91° East 492 566 37,000  Level FlightAware
20:08 41.5280 -97.4600 91° East 493 567 37,000  Level FlightAware
20:09 41.5270 -97.3310 91° East 493 567 37,000  Level FlightAware
20:09 41.5250 -97.2060 91° East 492 566 37,000  Level FlightAware
20:10 41.5230 -97.0730 91° East 485 558 37,000  Level FlightAware
20:11 41.5200 -96.9200 91° East 478 550 37,000  Level FlightAware
20:12 41.5180 -96.7840 91° East 480 552 37,000  Level FlightAware
20:12 41.5160 -96.6960 92° East 480 552 37,000  Level FlightAware
20:13 41.5110 -96.5540 93° East 479 551 37,000  Level FlightAware
20:14 41.4870 -96.4420 106° East 477 549 37,000  Level FlightAware
20:14 41.4500 -96.3480 118° Southeast 476 548 37,000  Level FlightAware
20:15 41.3920 -96.2020 118° Southeast 476 548 37,000  Level FlightAware
20:16 41.3400 -96.0740 118° Southeast 477 549 37,000  Level FlightAware
20:17 41.2930 -95.9570 118° Southeast 479 551 37,000  Level FlightAware
20:17 41.2460 -95.8400 118° Southeast 481 554 37,000  Level FlightAware
20:18 41.2050 -95.7380 118° Southeast 483 556 37,000  Level FlightAware
20:19 41.1630 -95.6330 118° Southeast 484 557 37,000  Level FlightAware
20:19 41.1260 -95.5410 118° Southeast 485 558 37,000  Level FlightAware
20:20 41.0760 -95.4170 118° Southeast 484 557 37,000  Level FlightAware
20:21 41.0400 -95.3270 118° Southeast 482 555 37,000  Level FlightAware
20:21 40.9990 -95.2250 118° Southeast 481 554 37,000  Level FlightAware
20:22 40.9520 -95.1070 118° Southeast 481 554 37,000  Level FlightAware
20:23 40.9290 -94.9210 99° East 476 548 37,000  Level FlightAware
20:24 40.9420 -94.7930 82° East 476 548 37,000  Level FlightAware
20:25 40.9480 -94.6660 86° East 475 547 37,000  Level FlightAware
20:26 40.9560 -94.5450 85° East 475 547 37,000  Level FlightAware
20:26 40.9630 -94.4150 86° East 466 536 37,000  Level FlightAware
20:27 40.9700 -94.2990 85° East 466 536 37,000  Level FlightAware
20:28 40.9780 -94.1720 85° East 471 542 37,000  Level FlightAware
20:28 40.9850 -94.0590 85° East 476 548 37,000  Level FlightAware
20:29 40.9920 -93.9380 86° East 485 558 37,000  Level FlightAware
20:30 40.9990 -93.8200 85° East 485 558 37,000  Level FlightAware
20:31 41.0070 -93.6670 86° East 487 560 37,000  Level FlightAware
20:31 41.0140 -93.5400 86° East 488 562 37,000  Level FlightAware
20:32 41.0200 -93.4260 86° East 488 562 37,000  Level FlightAware
20:33 41.0270 -93.2910 86° East 487 560 37,000  Level FlightAware
20:33 41.0340 -93.1380 86° East 486 559 37,000 -480 Level FlightAware
20:34 41.0410 -93.0040 86° East 484 557 36,300 -960 Descending FlightAware
20:35 41.0480 -92.8740 86° East 479 551 35,600 -1,020 Descending FlightAware
20:36 41.0530 -92.7560 87° East 481 554 34,900 -1,020 Descending FlightAware
20:37 41.0610 -92.5910 86° East 477 549 34,000 -1,080 Descending FlightAware
20:37 41.0660 -92.4830 86° East 468 539 33,300 -840 Descending FlightAware
20:38 41.0710 -92.3740 86° East 463 533 33,000 -240 Descending FlightAware
20:39 41.0760 -92.2580 87° East 463 533 33,000  Level FlightAware
20:39 41.0810 -92.1270 87° East 466 536 33,000 -480 Level FlightAware
20:40 41.0880 -91.9640 87° East 476 548 32,200 -2,400 Descending FlightAware
20:41 41.0950 -91.7970 87° East 495 570 28,600 -3,660 Descending FlightAware
20:42 41.0990 -91.6780 87° East 494 568 26,300 -3,300 Descending FlightAware
20:43 41.1040 -91.5480 87° East 488 562 24,100 -1,680 Descending FlightAware
20:43 41.1080 -91.4230 88° East 463 533 24,000 -60 Descending FlightAware
20:44 41.1140 -91.2640 87° East 462 532 24,000  Level FlightAware
20:45 41.1180 -91.1560 87° East 461 531 24,000  Level FlightAware
20:46 41.1220 -91.0380 87° East 461 531 24,000 -240 Level FlightAware
20:46 41.1260 -90.9200 87° East 422 486 23,700 -720 Descending FlightAware
20:47 41.1290 -90.8090 88° East 408 470 23,000 -540 Descending FlightAware
20:48 41.1320 -90.7190 87° East 406 467 23,000  Level FlightAware
20:48 41.1350 -90.6090 88° East 404 465 23,000  Level FlightAware
20:49 41.1370 -90.5300 88° East 404 465 23,000  Level FlightAware
20:50 41.1400 -90.4140 88° East 404 465 23,000  Level FlightAware
20:50 41.1430 -90.3150 88° East 425 489 23,000  Level FlightAware
20:51 41.1460 -90.2090 88° East 433 498 23,000 -480 Level FlightAware
20:52 41.1480 -90.1040 89° East 426 490 22,400 -1,560 Descending FlightAware
20:52 41.1510 -90.0060 88° East 419 482 21,000 -2,220 Descending FlightAware
20:53 41.1530 -89.8990 89° East 410 472 19,500 -2,160 Descending FlightAware
20:54 41.1560 -89.8000 88° East 400 460 18,100 -2,220 Descending FlightAware
20:54 41.1570 -89.7060 89° East 394 453 16,600 -1,740 Descending FlightAware
20:55 41.1590 -89.6020 89° East 378 435 15,700 -1,140 Descending FlightAware
20:56 41.1740 -89.5050 78° East 344 396 15,000 -900 Descending FlightAware
20:56 41.1980 -89.4300 67° East 317 365 14,500 -840 Descending FlightAware
20:57 41.2210 -89.3610 66° East 312 359 13,900 -1,020 Descending FlightAware
20:58 41.2430 -89.2890 68° East 308 354 13,200 -1,080 Descending FlightAware
20:58 41.2650 -89.2210 67° East 306 352 12,500 -1,260 Descending FlightAware
20:59 41.2880 -89.1490 67° East 300 345 11,500 -1,440 Descending FlightAware
21:00 41.3080 -89.0850 67° East 297 342 10,600 -1,260 Descending FlightAware
21:01 41.3320 -89.0070 68° East 283 326 9,800 -1,140 Descending FlightAware
21:01 41.3460 -88.9650 66° East 281 323 9,200 -1,440 Descending FlightAware
21:01 41.3610 -88.9180 67° East 280 322 8,500 -1,440 Descending FlightAware
21:02 41.3740 -88.8740 68° East 279 321 7,900 -1,320 Descending FlightAware
21:02 41.3880 -88.8300 67° East 278 320 7,300 -1,380 Descending FlightAware
21:03 41.4010 -88.7890 67° East 277 319 6,700 -1,440 Descending FlightAware
21:03 41.4150 -88.7420 68° East 276 318 6,000 -1,020 Descending FlightAware
21:04 41.4210 -88.7230 67° East 275 316 6,000  Level FlightAware
21:04 41.4350 -88.6780 67° East 283 326 6,000  Level FlightAware
21:04 41.4440 -88.6510 66° East 286 329 6,000  Level FlightAware
21:05 41.4570 -88.6080 68° East 285 328 6,000  Level FlightAware
21:05 41.4720 -88.5610 67° East 285 328 6,000  Level FlightAware
21:06 41.4840 -88.5200 69° East 285 328 6,000  Level FlightAware
21:06 41.4990 -88.4740 66° East 283 326 6,000 -540 Level FlightAware
21:07 41.5180 -88.4110 68° East 288 331 5,400 -900 Descending FlightAware
21:07 41.5340 -88.3600 67° East 289 333 5,000 -600 Descending FlightAware
21:08 41.5410 -88.3370 68° East 289 333 5,000  Level FlightAware
21:08 41.5450 -88.3070 80° East 287 330 5,000  Level FlightAware
21:08 41.5460 -88.2970 82° East 287 330 5,000  Level FlightAware
21:08 41.5460 -88.2420 90° East 286 329 5,000  Level FlightAware
21:09 41.5480 -88.1920 87° East 289 333 5,000  Level FlightAware
21:09 41.5500 -88.1420 87° East 288 331 5,000  Level FlightAware
21:10 41.5520 -88.0890 87° East 288 331 5,000  Level FlightAware
21:10 41.5540 -88.0420 87° East 265 305 5,000  Level FlightAware
21:11 41.5550 -88.0220 86° East 255 293 5,000  Level FlightAware
21:11 41.5570 -87.9740 87° East 249 287 5,000  Level FlightAware
21:11 41.5580 -87.9380 88° East 249 287 5,000  Level FlightAware
21:12 41.5600 -87.8980 86° East 249 287 5,000  Level FlightAware
21:12 41.5620 -87.8470 87° East 249 287 5,000  Level FlightAware
21:13 41.5630 -87.8090 88° East 225 259 5,000 -120 Level FlightAware
21:13 41.5650 -87.7670 86° East 205 236 4,900 -600 Descending FlightAware
21:14 41.5660 -87.7390 87° East 203 234 4,500 -1,020 Descending FlightAware
21:14 41.5680 -87.7090 85° East 201 231 4,100 -960 Descending FlightAware
21:15 41.5700 -87.6750 85° East 199 229 3,700 -1,020 Descending FlightAware
21:15 41.5720 -87.6440 85° East 198 228 3,200 -840 Descending FlightAware
21:15 41.5800 -87.6150 70° East 201 231 3,000 -300 Descending FlightAware
21:16 41.5910 -87.5990 47° Northeast 202 232 3,000  Level FlightAware
21:16 41.6100 -87.5710 48° Northeast 201 231 3,000  Level FlightAware
21:17 41.6200 -87.5590 42° Northeast 199 229 3,000  Level FlightAware
21:17 41.6300 -87.5550 17° North 193 222 3,000  Level FlightAware
21:17 41.6450 -87.5600 346° North 189 217 3,000  Level FlightAware
21:17 41.6560 -87.5660 338° Northwest 183 211 3,000  Level FlightAware
21:17 41.6620 -87.5770 306° West 175 201 3,000  Level FlightAware
21:18 41.6780 -87.6020 311° West 179 206 3,000 -120 Level FlightAware
21:18 41.6940 -87.6250 313° West 181 208 2,900 -600 Descending FlightAware
21:19 41.7080 -87.6440 315° West 181 208 2,500 -840 Descending FlightAware
21:19 41.7220 -87.6640 313° West 179 206 2,200 -660 Descending FlightAware
21:20 41.7380 -87.6820 320° Northwest 184 212 2,000 -540 Descending FlightAware
21:20 41.7470 -87.6840 351° North 189 217 1,900 -420 Descending FlightAware
21:20 41.7640 -87.6830 North 185 213 1,800  Descending FlightAware
21:21 41.7850 -87.6800 North 159 183 1,900  Climbing FlightAware
21:21 41.8060 -87.6790 North 161 185 1,800 -360 Descending FlightAware
21:22 41.8240 -87.6900 336° Northwest 151 174 1,600 -480 Descending FlightAware
21:22 41.8250 -87.6970 281° West 142 163 1,500 -480 Descending FlightAware
21:22 41.8140 -87.7150 231° Southwest 133 153 1,300 -420 Descending FlightAware
21:23 41.7960 -87.7380 224° Southwest 132 152 1,000 -420 Descending FlightAware